sensor_id;sensor_type;location;lat;lon;timestamp;P1;durP1;ratioP1;P2;durP2;ratioP2
73599;SDS011;61877;48.246;9.220;2022-08-19T00:01:41;30.10;;;18.50;;
73599;SDS011;61877;48.246;9.220;2022-08-19T00:04:11;29.10;;;17.30;;
73599;SDS011;61877;48.246;9.220;2022-08-19T00:06:39;28.48;;;17.80;;
73599;SDS011;61877;48.246;9.220;2022-08-19T00:09:07;29.73;;;17.55;;
73599;SDS011;61877;48.246;9.220;2022-08-19T00:11:34;30.45;;;18.23;;
73599;SDS011;61877;48.246;9.220;2022-08-19T00:14:00;29.90;;;18.03;;
73599;SDS011;61877;48.246;9.220;2022-08-19T00:16:27;32.60;;;18.52;;
73599;SDS011;61877;48.246;9.220;2022-08-19T00:18:53;30.57;;;18.20;;
73599;SDS011;61877;48.246;9.220;2022-08-19T00:21:18;28.98;;;17.45;;
73599;SDS011;61877;48.246;9.220;2022-08-19T00:23:45;29.70;;;17.47;;
73599;SDS011;61877;48.246;9.220;2022-08-19T00:26:10;30.10;;;17.90;;
73599;SDS011;61877;48.246;9.220;2022-08-19T00:28:36;29.60;;;17.93;;
73599;SDS011;61877;48.246;9.220;2022-08-19T00:31:02;29.52;;;18.33;;
73599;SDS011;61877;48.246;9.220;2022-08-19T00:33:28;29.60;;;17.67;;
73599;SDS011;61877;48.246;9.220;2022-08-19T00:35:54;30.53;;;18.23;;
73599;SDS011;61877;48.246;9.220;2022-08-19T00:38:20;32.45;;;18.27;;
73599;SDS011;61877;48.246;9.220;2022-08-19T00:40:47;30.97;;;18.43;;
73599;SDS011;61877;48.246;9.220;2022-08-19T00:43:12;30.88;;;18.15;;
73599;SDS011;61877;48.246;9.220;2022-08-19T00:45:42;30.02;;;17.00;;
73599;SDS011;61877;48.246;9.220;2022-08-19T00:48:08;28.87;;;18.10;;
73599;SDS011;61877;48.246;9.220;2022-08-19T00:50:34;27.87;;;16.87;;
73599;SDS011;61877;48.246;9.220;2022-08-19T00:52:59;29.80;;;17.45;;
73599;SDS011;61877;48.246;9.220;2022-08-19T00:55:26;30.20;;;17.05;;
73599;SDS011;61877;48.246;9.220;2022-08-19T00:57:55;31.02;;;17.55;;
73599;SDS011;61877;48.246;9.220;2022-08-19T01:00:25;30.08;;;17.17;;
73599;SDS011;61877;48.246;9.220;2022-08-19T01:02:52;31.17;;;17.33;;
73599;SDS011;61877;48.246;9.220;2022-08-19T01:05:18;29.02;;;16.80;;
73599;SDS011;61877;48.246;9.220;2022-08-19T01:07:48;30.75;;;17.52;;
73599;SDS011;61877;48.246;9.220;2022-08-19T01:10:15;26.10;;;15.90;;
73599;SDS011;61877;48.246;9.220;2022-08-19T01:12:44;29.55;;;16.73;;
73599;SDS011;61877;48.246;9.220;2022-08-19T01:15:12;28.67;;;17.08;;
73599;SDS011;61877;48.246;9.220;2022-08-19T01:17:41;27.95;;;16.25;;
73599;SDS011;61877;48.246;9.220;2022-08-19T01:20:09;30.83;;;17.58;;
73599;SDS011;61877;48.246;9.220;2022-08-19T01:22:37;30.50;;;16.47;;
73599;SDS011;61877;48.246;9.220;2022-08-19T01:25:07;27.75;;;16.98;;
73599;SDS011;61877;48.246;9.220;2022-08-19T01:27:36;28.30;;;17.10;;
73599;SDS011;61877;48.246;9.220;2022-08-19T01:30:03;28.47;;;17.10;;
73599;SDS011;61877;48.246;9.220;2022-08-19T01:32:29;28.42;;;16.73;;
73599;SDS011;61877;48.246;9.220;2022-08-19T01:34:55;27.97;;;16.33;;
73599;SDS011;61877;48.246;9.220;2022-08-19T01:37:20;27.65;;;16.10;;
73599;SDS011;61877;48.246;9.220;2022-08-19T01:39:47;29.53;;;16.97;;
73599;SDS011;61877;48.246;9.220;2022-08-19T01:42:12;28.67;;;17.02;;
73599;SDS011;61877;48.246;9.220;2022-08-19T01:44:38;29.60;;;16.70;;
73599;SDS011;61877;48.246;9.220;2022-08-19T01:47:04;27.83;;;16.67;;
73599;SDS011;61877;48.246;9.220;2022-08-19T01:49:30;29.93;;;16.83;;
73599;SDS011;61877;48.246;9.220;2022-08-19T01:51:56;27.13;;;16.08;;
73599;SDS011;61877;48.246;9.220;2022-08-19T01:54:22;28.47;;;16.53;;
73599;SDS011;61877;48.246;9.220;2022-08-19T01:56:50;27.02;;;15.95;;
73599;SDS011;61877;48.246;9.220;2022-08-19T01:59:17;31.10;;;16.75;;
73599;SDS011;61877;48.246;9.220;2022-08-19T02:01:45;31.63;;;17.42;;
73599;SDS011;61877;48.246;9.220;2022-08-19T02:04:10;28.53;;;16.07;;
73599;SDS011;61877;48.246;9.220;2022-08-19T02:06:36;27.27;;;15.90;;
73599;SDS011;61877;48.246;9.220;2022-08-19T02:09:02;28.27;;;15.27;;
73599;SDS011;61877;48.246;9.220;2022-08-19T02:11:31;28.27;;;15.88;;
73599;SDS011;61877;48.246;9.220;2022-08-19T02:14:00;28.65;;;15.82;;
73599;SDS011;61877;48.246;9.220;2022-08-19T02:16:27;28.20;;;15.27;;
73599;SDS011;61877;48.246;9.220;2022-08-19T02:18:53;29.30;;;16.27;;
73599;SDS011;61877;48.246;9.220;2022-08-19T02:21:19;31.07;;;17.20;;
73599;SDS011;61877;48.246;9.220;2022-08-19T02:23:47;30.40;;;16.13;;
73599;SDS011;61877;48.246;9.220;2022-08-19T02:26:13;30.13;;;16.70;;
73599;SDS011;61877;48.246;9.220;2022-08-19T02:28:39;27.75;;;15.82;;
73599;SDS011;61877;48.246;9.220;2022-08-19T02:31:09;26.55;;;15.02;;
73599;SDS011;61877;48.246;9.220;2022-08-19T02:33:36;29.63;;;15.77;;
73599;SDS011;61877;48.246;9.220;2022-08-19T02:36:02;28.50;;;16.02;;
73599;SDS011;61877;48.246;9.220;2022-08-19T02:38:28;29.65;;;16.08;;
73599;SDS011;61877;48.246;9.220;2022-08-19T02:40:54;30.60;;;16.97;;
73599;SDS011;61877;48.246;9.220;2022-08-19T02:43:21;29.83;;;16.70;;
73599;SDS011;61877;48.246;9.220;2022-08-19T02:45:47;28.27;;;15.67;;
73599;SDS011;61877;48.246;9.220;2022-08-19T02:48:15;26.70;;;15.90;;
73599;SDS011;61877;48.246;9.220;2022-08-19T02:50:40;27.73;;;15.70;;
73599;SDS011;61877;48.246;9.220;2022-08-19T02:53:06;27.50;;;15.40;;
73599;SDS011;61877;48.246;9.220;2022-08-19T02:55:31;28.83;;;15.30;;
73599;SDS011;61877;48.246;9.220;2022-08-19T02:57:57;26.73;;;15.57;;
73599;SDS011;61877;48.246;9.220;2022-08-19T03:00:22;27.60;;;14.93;;
73599;SDS011;61877;48.246;9.220;2022-08-19T03:02:47;27.60;;;15.10;;
73599;SDS011;61877;48.246;9.220;2022-08-19T03:05:14;28.03;;;15.00;;
73599;SDS011;61877;48.246;9.220;2022-08-19T03:07:40;26.13;;;15.23;;
73599;SDS011;61877;48.246;9.220;2022-08-19T03:10:06;27.20;;;15.03;;
73599;SDS011;61877;48.246;9.220;2022-08-19T03:12:34;27.30;;;15.13;;
73599;SDS011;61877;48.246;9.220;2022-08-19T03:15:01;30.17;;;16.67;;
73599;SDS011;61877;48.246;9.220;2022-08-19T03:17:27;28.43;;;15.87;;
73599;SDS011;61877;48.246;9.220;2022-08-19T03:19:52;29.83;;;16.70;;
73599;SDS011;61877;48.246;9.220;2022-08-19T03:22:19;28.20;;;15.83;;
73599;SDS011;61877;48.246;9.220;2022-08-19T03:24:44;30.58;;;16.77;;
73599;SDS011;61877;48.246;9.220;2022-08-19T03:27:09;29.97;;;15.97;;
73599;SDS011;61877;48.246;9.220;2022-08-19T03:29:36;27.83;;;16.37;;
73599;SDS011;61877;48.246;9.220;2022-08-19T03:32:03;27.92;;;15.75;;
73599;SDS011;61877;48.246;9.220;2022-08-19T03:34:31;31.80;;;16.08;;
73599;SDS011;61877;48.246;9.220;2022-08-19T03:36:58;30.40;;;16.23;;
73599;SDS011;61877;48.246;9.220;2022-08-19T03:39:29;31.83;;;17.40;;
73599;SDS011;61877;48.246;9.220;2022-08-19T03:41:54;32.45;;;16.48;;
73599;SDS011;61877;48.246;9.220;2022-08-19T03:44:20;27.85;;;15.70;;
73599;SDS011;61877;48.246;9.220;2022-08-19T03:46:48;27.80;;;15.53;;
73599;SDS011;61877;48.246;9.220;2022-08-19T03:49:15;29.73;;;15.50;;
73599;SDS011;61877;48.246;9.220;2022-08-19T03:51:41;26.55;;;14.25;;
73599;SDS011;61877;48.246;9.220;2022-08-19T03:54:09;28.92;;;14.98;;
73599;SDS011;61877;48.246;9.220;2022-08-19T03:56:40;29.60;;;15.48;;
73599;SDS011;61877;48.246;9.220;2022-08-19T03:59:08;28.10;;;15.47;;
73599;SDS011;61877;48.246;9.220;2022-08-19T04:01:35;28.75;;;15.00;;
73599;SDS011;61877;48.246;9.220;2022-08-19T04:04:00;26.97;;;14.80;;
73599;SDS011;61877;48.246;9.220;2022-08-19T04:06:27;28.88;;;15.15;;
73599;SDS011;61877;48.246;9.220;2022-08-19T04:08:56;27.60;;;15.15;;
73599;SDS011;61877;48.246;9.220;2022-08-19T04:11:23;27.58;;;14.93;;
73599;SDS011;61877;48.246;9.220;2022-08-19T04:13:51;29.67;;;16.10;;
73599;SDS011;61877;48.246;9.220;2022-08-19T04:16:18;26.60;;;14.77;;
73599;SDS011;61877;48.246;9.220;2022-08-19T04:18:43;31.30;;;16.25;;
73599;SDS011;61877;48.246;9.220;2022-08-19T04:21:14;32.77;;;16.83;;
73599;SDS011;61877;48.246;9.220;2022-08-19T04:23:41;29.55;;;16.10;;
73599;SDS011;61877;48.246;9.220;2022-08-19T04:26:06;31.67;;;17.43;;
73599;SDS011;61877;48.246;9.220;2022-08-19T04:28:31;33.80;;;17.23;;
73599;SDS011;61877;48.246;9.220;2022-08-19T04:30:58;34.70;;;17.63;;
73599;SDS011;61877;48.246;9.220;2022-08-19T04:33:26;30.25;;;16.67;;
73599;SDS011;61877;48.246;9.220;2022-08-19T04:35:52;31.43;;;16.83;;
73599;SDS011;61877;48.246;9.220;2022-08-19T04:38:19;30.90;;;17.00;;
73599;SDS011;61877;48.246;9.220;2022-08-19T04:40:47;32.25;;;17.63;;
73599;SDS011;61877;48.246;9.220;2022-08-19T04:43:14;31.23;;;16.95;;
73599;SDS011;61877;48.246;9.220;2022-08-19T04:45:39;30.33;;;16.13;;
73599;SDS011;61877;48.246;9.220;2022-08-19T04:48:06;29.83;;;15.88;;
73599;SDS011;61877;48.246;9.220;2022-08-19T04:50:31;32.07;;;17.67;;
73599;SDS011;61877;48.246;9.220;2022-08-19T04:52:57;31.67;;;17.67;;
73599;SDS011;61877;48.246;9.220;2022-08-19T04:55:22;31.03;;;16.30;;
73599;SDS011;61877;48.246;9.220;2022-08-19T04:57:48;30.00;;;16.95;;
73599;SDS011;61877;48.246;9.220;2022-08-19T05:00:13;36.13;;;20.47;;
73599;SDS011;61877;48.246;9.220;2022-08-19T05:02:39;35.90;;;19.67;;
73599;SDS011;61877;48.246;9.220;2022-08-19T05:05:06;33.37;;;18.30;;
73599;SDS011;61877;48.246;9.220;2022-08-19T05:07:32;32.45;;;18.48;;
73599;SDS011;61877;48.246;9.220;2022-08-19T05:09:58;33.43;;;19.30;;
73599;SDS011;61877;48.246;9.220;2022-08-19T05:12:24;35.77;;;18.37;;
73599;SDS011;61877;48.246;9.220;2022-08-19T05:14:49;34.28;;;18.30;;
73599;SDS011;61877;48.246;9.220;2022-08-19T05:17:15;34.63;;;19.13;;
73599;SDS011;61877;48.246;9.220;2022-08-19T05:19:40;35.92;;;19.52;;
73599;SDS011;61877;48.246;9.220;2022-08-19T05:22:07;34.90;;;19.50;;
73599;SDS011;61877;48.246;9.220;2022-08-19T05:24:32;33.30;;;18.85;;
73599;SDS011;61877;48.246;9.220;2022-08-19T05:26:58;35.10;;;18.90;;
73599;SDS011;61877;48.246;9.220;2022-08-19T05:29:24;34.93;;;19.57;;
73599;SDS011;61877;48.246;9.220;2022-08-19T05:31:51;35.88;;;19.92;;
73599;SDS011;61877;48.246;9.220;2022-08-19T05:34:18;36.88;;;20.17;;
73599;SDS011;61877;48.246;9.220;2022-08-19T05:36:45;36.70;;;19.45;;
73599;SDS011;61877;48.246;9.220;2022-08-19T05:39:13;36.07;;;19.80;;
73599;SDS011;61877;48.246;9.220;2022-08-19T05:41:41;38.53;;;21.05;;
73599;SDS011;61877;48.246;9.220;2022-08-19T05:44:25;38.23;;;19.60;;
73599;SDS011;61877;48.246;9.220;2022-08-19T05:46:51;38.40;;;21.95;;
73599;SDS011;61877;48.246;9.220;2022-08-19T05:49:17;40.97;;;21.48;;
73599;SDS011;61877;48.246;9.220;2022-08-19T05:51:43;37.03;;;20.05;;
73599;SDS011;61877;48.246;9.220;2022-08-19T05:54:09;40.23;;;22.17;;
73599;SDS011;61877;48.246;9.220;2022-08-19T05:56:36;38.60;;;20.47;;
73599;SDS011;61877;48.246;9.220;2022-08-19T05:59:02;40.35;;;21.10;;
73599;SDS011;61877;48.246;9.220;2022-08-19T06:01:31;39.35;;;21.98;;
73599;SDS011;61877;48.246;9.220;2022-08-19T06:03:56;39.10;;;20.37;;
73599;SDS011;61877;48.246;9.220;2022-08-19T06:06:21;38.20;;;20.25;;
73599;SDS011;61877;48.246;9.220;2022-08-19T06:08:47;36.17;;;19.60;;
73599;SDS011;61877;48.246;9.220;2022-08-19T06:11:14;37.77;;;20.53;;
73599;SDS011;61877;48.246;9.220;2022-08-19T06:13:43;39.95;;;21.70;;
73599;SDS011;61877;48.246;9.220;2022-08-19T06:16:10;38.38;;;20.73;;
73599;SDS011;61877;48.246;9.220;2022-08-19T06:18:35;38.23;;;20.10;;
73599;SDS011;61877;48.246;9.220;2022-08-19T06:21:00;36.95;;;19.42;;
73599;SDS011;61877;48.246;9.220;2022-08-19T06:23:26;36.57;;;19.60;;
73599;SDS011;61877;48.246;9.220;2022-08-19T06:25:51;38.23;;;20.40;;
73599;SDS011;61877;48.246;9.220;2022-08-19T06:28:17;39.00;;;20.10;;
73599;SDS011;61877;48.246;9.220;2022-08-19T06:30:43;35.97;;;19.80;;
73599;SDS011;61877;48.246;9.220;2022-08-19T06:33:09;37.37;;;20.23;;
73599;SDS011;61877;48.246;9.220;2022-08-19T06:35:37;39.33;;;20.45;;
73599;SDS011;61877;48.246;9.220;2022-08-19T06:38:03;37.57;;;19.47;;
73599;SDS011;61877;48.246;9.220;2022-08-19T06:40:29;40.03;;;20.90;;
73599;SDS011;61877;48.246;9.220;2022-08-19T06:42:54;36.50;;;19.40;;
73599;SDS011;61877;48.246;9.220;2022-08-19T06:45:20;37.47;;;18.87;;
73599;SDS011;61877;48.246;9.220;2022-08-19T06:47:47;38.53;;;20.27;;
73599;SDS011;61877;48.246;9.220;2022-08-19T06:50:12;36.40;;;19.08;;
73599;SDS011;61877;48.246;9.220;2022-08-19T06:52:37;38.87;;;20.73;;
73599;SDS011;61877;48.246;9.220;2022-08-19T06:55:03;39.95;;;20.40;;
73599;SDS011;61877;48.246;9.220;2022-08-19T06:57:29;38.00;;;20.70;;
73599;SDS011;61877;48.246;9.220;2022-08-19T06:59:54;37.40;;;19.98;;
73599;SDS011;61877;48.246;9.220;2022-08-19T07:02:20;38.27;;;20.87;;
73599;SDS011;61877;48.246;9.220;2022-08-19T07:04:46;38.33;;;19.97;;
73599;SDS011;61877;48.246;9.220;2022-08-19T07:07:13;38.13;;;20.38;;
73599;SDS011;61877;48.246;9.220;2022-08-19T07:09:40;40.42;;;21.40;;
73599;SDS011;61877;48.246;9.220;2022-08-19T07:12:08;40.50;;;20.63;;
73599;SDS011;61877;48.246;9.220;2022-08-19T07:14:35;37.90;;;20.08;;
73599;SDS011;61877;48.246;9.220;2022-08-19T07:17:01;37.97;;;21.33;;
73599;SDS011;61877;48.246;9.220;2022-08-19T07:19:26;40.40;;;20.00;;
73599;SDS011;61877;48.246;9.220;2022-08-19T07:21:55;40.72;;;20.63;;
73599;SDS011;61877;48.246;9.220;2022-08-19T07:24:21;38.55;;;20.40;;
73599;SDS011;61877;48.246;9.220;2022-08-19T07:26:48;37.38;;;20.17;;
73599;SDS011;61877;48.246;9.220;2022-08-19T07:29:13;35.33;;;20.13;;
73599;SDS011;61877;48.246;9.220;2022-08-19T07:31:39;38.03;;;20.03;;
73599;SDS011;61877;48.246;9.220;2022-08-19T07:34:05;36.63;;;20.23;;
73599;SDS011;61877;48.246;9.220;2022-08-19T07:36:32;34.88;;;19.83;;
73599;SDS011;61877;48.246;9.220;2022-08-19T07:39:03;39.80;;;20.88;;
73599;SDS011;61877;48.246;9.220;2022-08-19T07:41:30;37.58;;;19.95;;
73599;SDS011;61877;48.246;9.220;2022-08-19T07:43:56;36.93;;;20.23;;
73599;SDS011;61877;48.246;9.220;2022-08-19T07:46:22;36.95;;;20.33;;
73599;SDS011;61877;48.246;9.220;2022-08-19T07:48:48;37.30;;;19.93;;
73599;SDS011;61877;48.246;9.220;2022-08-19T07:51:17;38.33;;;20.98;;
73599;SDS011;61877;48.246;9.220;2022-08-19T07:53:45;40.78;;;20.95;;
73599;SDS011;61877;48.246;9.220;2022-08-19T07:56:14;39.03;;;20.65;;
73599;SDS011;61877;48.246;9.220;2022-08-19T07:58:40;35.77;;;19.53;;
73599;SDS011;61877;48.246;9.220;2022-08-19T08:01:09;36.90;;;20.13;;
73599;SDS011;61877;48.246;9.220;2022-08-19T08:03:39;38.55;;;19.92;;
73599;SDS011;61877;48.246;9.220;2022-08-19T08:06:04;39.83;;;20.95;;
73599;SDS011;61877;48.246;9.220;2022-08-19T08:08:30;37.97;;;20.80;;
73599;SDS011;61877;48.246;9.220;2022-08-19T08:10:56;39.92;;;20.48;;
73599;SDS011;61877;48.246;9.220;2022-08-19T08:13:23;38.37;;;19.93;;
73599;SDS011;61877;48.246;9.220;2022-08-19T08:15:49;38.05;;;20.80;;
73599;SDS011;61877;48.246;9.220;2022-08-19T08:18:15;38.77;;;21.10;;
73599;SDS011;61877;48.246;9.220;2022-08-19T08:20:40;39.00;;;21.27;;
73599;SDS011;61877;48.246;9.220;2022-08-19T08:23:05;42.50;;;21.90;;
73599;SDS011;61877;48.246;9.220;2022-08-19T08:25:31;38.57;;;21.10;;
73599;SDS011;61877;48.246;9.220;2022-08-19T08:27:57;38.58;;;20.98;;
73599;SDS011;61877;48.246;9.220;2022-08-19T08:30:28;36.40;;;20.13;;
73599;SDS011;61877;48.246;9.220;2022-08-19T08:32:55;34.17;;;19.75;;
73599;SDS011;61877;48.246;9.220;2022-08-19T08:35:21;34.55;;;19.70;;
73599;SDS011;61877;48.246;9.220;2022-08-19T08:37:48;34.88;;;19.17;;
73599;SDS011;61877;48.246;9.220;2022-08-19T08:40:17;31.80;;;18.63;;
73599;SDS011;61877;48.246;9.220;2022-08-19T08:42:47;33.43;;;18.93;;
73599;SDS011;61877;48.246;9.220;2022-08-19T08:45:19;30.60;;;17.65;;
73599;SDS011;61877;48.246;9.220;2022-08-19T08:47:48;32.45;;;17.88;;
73599;SDS011;61877;48.246;9.220;2022-08-19T08:50:18;31.08;;;17.05;;
73599;SDS011;61877;48.246;9.220;2022-08-19T08:52:51;30.17;;;17.15;;
73599;SDS011;61877;48.246;9.220;2022-08-19T08:55:22;29.27;;;16.50;;
73599;SDS011;61877;48.246;9.220;2022-08-19T08:57:51;30.05;;;16.88;;
73599;SDS011;61877;48.246;9.220;2022-08-19T09:00:24;30.02;;;17.00;;
73599;SDS011;61877;48.246;9.220;2022-08-19T09:02:52;25.80;;;14.93;;
73599;SDS011;61877;48.246;9.220;2022-08-19T09:05:18;27.65;;;15.85;;
73599;SDS011;61877;48.246;9.220;2022-08-19T09:07:46;25.40;;;14.10;;
73599;SDS011;61877;48.246;9.220;2022-08-19T09:10:19;24.85;;;14.63;;
73599;SDS011;61877;48.246;9.220;2022-08-19T09:12:54;24.80;;;14.13;;
73599;SDS011;61877;48.246;9.220;2022-08-19T09:15:29;26.35;;;14.45;;
73599;SDS011;61877;48.246;9.220;2022-08-19T09:18:01;24.58;;;14.02;;
73599;SDS011;61877;48.246;9.220;2022-08-19T09:20:28;23.13;;;12.70;;
73599;SDS011;61877;48.246;9.220;2022-08-19T09:22:54;22.48;;;13.00;;
73599;SDS011;61877;48.246;9.220;2022-08-19T09:25:20;23.53;;;13.10;;
73599;SDS011;61877;48.246;9.220;2022-08-19T09:27:48;20.88;;;12.70;;
73599;SDS011;61877;48.246;9.220;2022-08-19T09:30:16;21.05;;;12.38;;
73599;SDS011;61877;48.246;9.220;2022-08-19T09:32:43;21.38;;;12.52;;
73599;SDS011;61877;48.246;9.220;2022-08-19T09:35:11;22.60;;;13.10;;
73599;SDS011;61877;48.246;9.220;2022-08-19T09:37:37;22.50;;;13.10;;
73599;SDS011;61877;48.246;9.220;2022-08-19T09:40:04;21.50;;;12.30;;
73599;SDS011;61877;48.246;9.220;2022-08-19T09:42:30;23.15;;;12.73;;
73599;SDS011;61877;48.246;9.220;2022-08-19T09:44:55;20.75;;;11.65;;
73599;SDS011;61877;48.246;9.220;2022-08-19T09:47:21;21.20;;;11.37;;
73599;SDS011;61877;48.246;9.220;2022-08-19T09:49:46;19.67;;;11.17;;
73599;SDS011;61877;48.246;9.220;2022-08-19T09:52:13;19.83;;;10.43;;
73599;SDS011;61877;48.246;9.220;2022-08-19T09:54:38;19.73;;;11.15;;
73599;SDS011;61877;48.246;9.220;2022-08-19T09:57:04;18.73;;;10.47;;
73599;SDS011;61877;48.246;9.220;2022-08-19T09:59:30;18.73;;;10.30;;
73599;SDS011;61877;48.246;9.220;2022-08-19T10:01:55;16.83;;;9.27;;
73599;SDS011;61877;48.246;9.220;2022-08-19T10:04:22;18.43;;;10.17;;
73599;SDS011;61877;48.246;9.220;2022-08-19T10:06:48;16.88;;;9.45;;
73599;SDS011;61877;48.246;9.220;2022-08-19T10:09:17;16.83;;;9.40;;
73599;SDS011;61877;48.246;9.220;2022-08-19T10:11:43;15.27;;;8.95;;
73599;SDS011;61877;48.246;9.220;2022-08-19T10:14:09;15.60;;;8.60;;
73599;SDS011;61877;48.246;9.220;2022-08-19T10:16:35;14.77;;;7.73;;
73599;SDS011;61877;48.246;9.220;2022-08-19T10:19:02;11.65;;;6.07;;
73599;SDS011;61877;48.246;9.220;2022-08-19T10:21:28;11.30;;;6.00;;
73599;SDS011;61877;48.246;9.220;2022-08-19T10:23:56;11.75;;;5.97;;
73599;SDS011;61877;48.246;9.220;2022-08-19T10:26:25;11.32;;;6.25;;
73599;SDS011;61877;48.246;9.220;2022-08-19T10:28:52;10.40;;;5.32;;
73599;SDS011;61877;48.246;9.220;2022-08-19T10:31:18;11.93;;;5.33;;
73599;SDS011;61877;48.246;9.220;2022-08-19T10:33:45;10.60;;;5.43;;
73599;SDS011;61877;48.246;9.220;2022-08-19T10:36:12;9.75;;;5.30;;
73599;SDS011;61877;48.246;9.220;2022-08-19T10:38:40;10.07;;;5.10;;
73599;SDS011;61877;48.246;9.220;2022-08-19T10:41:06;9.25;;;4.70;;
73599;SDS011;61877;48.246;9.220;2022-08-19T10:43:34;8.77;;;4.05;;
73599;SDS011;61877;48.246;9.220;2022-08-19T10:45:59;8.45;;;4.00;;
73599;SDS011;61877;48.246;9.220;2022-08-19T10:48:25;7.83;;;3.80;;
73599;SDS011;61877;48.246;9.220;2022-08-19T10:50:50;7.50;;;3.70;;
73599;SDS011;61877;48.246;9.220;2022-08-19T10:53:16;8.33;;;4.00;;
73599;SDS011;61877;48.246;9.220;2022-08-19T10:55:41;8.50;;;4.00;;
73599;SDS011;61877;48.246;9.220;2022-08-19T10:58:10;7.50;;;3.60;;
73599;SDS011;61877;48.246;9.220;2022-08-19T11:00:37;8.55;;;3.90;;
73599;SDS011;61877;48.246;9.220;2022-08-19T11:03:03;7.65;;;3.30;;
73599;SDS011;61877;48.246;9.220;2022-08-19T11:05:28;6.63;;;2.83;;
73599;SDS011;61877;48.246;9.220;2022-08-19T11:07:53;6.47;;;2.80;;
73599;SDS011;61877;48.246;9.220;2022-08-19T11:10:19;7.70;;;3.10;;
73599;SDS011;61877;48.246;9.220;2022-08-19T11:12:45;7.30;;;2.90;;
73599;SDS011;61877;48.246;9.220;2022-08-19T11:15:10;8.27;;;3.40;;
73599;SDS011;61877;48.246;9.220;2022-08-19T11:17:37;7.87;;;3.53;;
73599;SDS011;61877;48.246;9.220;2022-08-19T11:20:03;7.47;;;3.35;;
73599;SDS011;61877;48.246;9.220;2022-08-19T11:22:28;7.60;;;3.73;;
73599;SDS011;61877;48.246;9.220;2022-08-19T11:24:54;8.02;;;3.85;;
73599;SDS011;61877;48.246;9.220;2022-08-19T11:27:19;8.47;;;4.43;;
73599;SDS011;61877;48.246;9.220;2022-08-19T11:29:45;9.10;;;4.03;;
73599;SDS011;61877;48.246;9.220;2022-08-19T11:32:10;10.30;;;4.50;;
73599;SDS011;61877;48.246;9.220;2022-08-19T11:34:37;10.82;;;5.00;;
73599;SDS011;61877;48.246;9.220;2022-08-19T11:37:03;10.83;;;5.70;;
73599;SDS011;61877;48.246;9.220;2022-08-19T11:39:29;11.05;;;5.80;;
73599;SDS011;61877;48.246;9.220;2022-08-19T11:41:57;13.60;;;8.18;;
73599;SDS011;61877;48.246;9.220;2022-08-19T11:44:23;16.27;;;9.55;;
73599;SDS011;61877;48.246;9.220;2022-08-19T11:46:49;18.17;;;11.07;;
73599;SDS011;61877;48.246;9.220;2022-08-19T11:49:15;23.40;;;12.30;;
73599;SDS011;61877;48.246;9.220;2022-08-19T11:51:43;20.52;;;12.20;;
73599;SDS011;61877;48.246;9.220;2022-08-19T11:54:09;23.97;;;12.63;;
73599;SDS011;61877;48.246;9.220;2022-08-19T11:56:36;21.58;;;12.30;;
73599;SDS011;61877;48.246;9.220;2022-08-19T11:59:02;22.40;;;12.73;;
73599;SDS011;61877;48.246;9.220;2022-08-19T12:01:28;22.20;;;13.43;;
73599;SDS011;61877;48.246;9.220;2022-08-19T12:03:54;24.10;;;13.25;;
73599;SDS011;61877;48.246;9.220;2022-08-19T12:06:21;23.55;;;13.45;;
73599;SDS011;61877;48.246;9.220;2022-08-19T12:08:50;20.13;;;12.18;;
73599;SDS011;61877;48.246;9.220;2022-08-19T12:11:16;21.23;;;12.97;;
73599;SDS011;61877;48.246;9.220;2022-08-19T12:13:41;20.42;;;12.02;;
73599;SDS011;61877;48.246;9.220;2022-08-19T12:16:07;21.33;;;12.40;;
73599;SDS011;61877;48.246;9.220;2022-08-19T12:18:33;22.27;;;12.73;;
73599;SDS011;61877;48.246;9.220;2022-08-19T12:20:59;21.10;;;12.53;;
73599;SDS011;61877;48.246;9.220;2022-08-19T12:23:24;21.97;;;13.67;;
73599;SDS011;61877;48.246;9.220;2022-08-19T12:25:51;21.45;;;13.43;;
73599;SDS011;61877;48.246;9.220;2022-08-19T12:28:17;24.57;;;14.17;;
73599;SDS011;61877;48.246;9.220;2022-08-19T12:30:43;23.20;;;14.18;;
73599;SDS011;61877;48.246;9.220;2022-08-19T12:33:08;24.80;;;15.17;;
73599;SDS011;61877;48.246;9.220;2022-08-19T12:35:34;27.27;;;15.63;;
73599;SDS011;61877;48.246;9.220;2022-08-19T12:37:59;24.37;;;15.33;;
73599;SDS011;61877;48.246;9.220;2022-08-19T12:40:24;24.83;;;15.87;;
73599;SDS011;61877;48.246;9.220;2022-08-19T12:42:51;25.43;;;15.73;;
73599;SDS011;61877;48.246;9.220;2022-08-19T12:45:17;25.75;;;15.50;;
73599;SDS011;61877;48.246;9.220;2022-08-19T12:47:42;26.23;;;15.17;;
73599;SDS011;61877;48.246;9.220;2022-08-19T12:50:08;24.47;;;14.93;;
73599;SDS011;61877;48.246;9.220;2022-08-19T12:52:36;25.73;;;16.10;;
73599;SDS011;61877;48.246;9.220;2022-08-19T12:55:03;24.70;;;15.50;;
73599;SDS011;61877;48.246;9.220;2022-08-19T12:57:30;26.95;;;16.25;;
73599;SDS011;61877;48.246;9.220;2022-08-19T12:59:57;22.60;;;13.87;;
73599;SDS011;61877;48.246;9.220;2022-08-19T13:02:23;23.73;;;15.15;;
73599;SDS011;61877;48.246;9.220;2022-08-19T13:04:48;23.90;;;15.43;;
73599;SDS011;61877;48.246;9.220;2022-08-19T13:07:13;23.73;;;14.07;;
73599;SDS011;61877;48.246;9.220;2022-08-19T13:09:39;25.80;;;15.60;;
73599;SDS011;61877;48.246;9.220;2022-08-19T13:12:04;23.23;;;14.80;;
73599;SDS011;61877;48.246;9.220;2022-08-19T13:14:30;24.77;;;15.33;;
73599;SDS011;61877;48.246;9.220;2022-08-19T13:16:57;26.30;;;16.03;;
73599;SDS011;61877;48.246;9.220;2022-08-19T13:19:22;25.63;;;15.75;;
73599;SDS011;61877;48.246;9.220;2022-08-19T13:21:49;25.33;;;16.23;;
73599;SDS011;61877;48.246;9.220;2022-08-19T13:26:58;24.40;;;15.68;;
73599;SDS011;61877;48.246;9.220;2022-08-19T13:29:24;25.20;;;15.80;;
73599;SDS011;61877;48.246;9.220;2022-08-19T13:31:49;25.13;;;15.90;;
73599;SDS011;61877;48.246;9.220;2022-08-19T13:34:27;25.10;;;16.45;;
73599;SDS011;61877;48.246;9.220;2022-08-19T13:36:54;25.77;;;16.00;;
73599;SDS011;61877;48.246;9.220;2022-08-19T13:39:20;25.33;;;15.93;;
73599;SDS011;61877;48.246;9.220;2022-08-19T13:41:46;25.50;;;16.17;;
73599;SDS011;61877;48.246;9.220;2022-08-19T13:44:11;25.45;;;16.00;;
73599;SDS011;61877;48.246;9.220;2022-08-19T13:46:39;27.27;;;16.53;;
73599;SDS011;61877;48.246;9.220;2022-08-19T13:49:05;23.85;;;15.10;;
73599;SDS011;61877;48.246;9.220;2022-08-19T13:51:32;23.43;;;15.70;;
73599;SDS011;61877;48.246;9.220;2022-08-19T13:53:57;24.63;;;16.05;;
73599;SDS011;61877;48.246;9.220;2022-08-19T13:56:22;24.77;;;16.10;;
73599;SDS011;61877;48.246;9.220;2022-08-19T13:58:48;24.87;;;15.83;;
73599;SDS011;61877;48.246;9.220;2022-08-19T14:01:18;24.63;;;15.40;;
73599;SDS011;61877;48.246;9.220;2022-08-19T14:03:44;25.33;;;16.42;;
73599;SDS011;61877;48.246;9.220;2022-08-19T14:06:23;27.73;;;16.63;;
73599;SDS011;61877;48.246;9.220;2022-08-19T14:09:05;24.83;;;16.35;;
73599;SDS011;61877;48.246;9.220;2022-08-19T14:11:37;25.25;;;15.77;;
73599;SDS011;61877;48.246;9.220;2022-08-19T14:14:03;22.83;;;15.13;;
73599;SDS011;61877;48.246;9.220;2022-08-19T14:16:28;22.97;;;15.00;;
73599;SDS011;61877;48.246;9.220;2022-08-19T14:18:54;23.88;;;15.98;;
73599;SDS011;61877;48.246;9.220;2022-08-19T14:21:20;24.57;;;15.60;;
73599;SDS011;61877;48.246;9.220;2022-08-19T14:23:47;23.75;;;15.05;;